createdAt,value
2023-04-16T00:01:30.769Z,55.05
2023-04-16T00:03:57.650Z,54.69
2023-04-16T00:06:24.792Z,54.11
2023-04-16T00:08:51.593Z,55.01
2023-04-16T00:11:20.900Z,55.13
2023-04-16T00:13:48.453Z,55.21
2023-04-16T00:16:15.040Z,54.46
2023-04-16T00:18:41.750Z,54.14
2023-04-16T00:21:08.304Z,54.12
2023-04-16T00:23:35.063Z,54.85
2023-04-16T00:26:02.639Z,54.85
2023-04-16T00:28:29.088Z,54.74
2023-04-16T00:30:56.632Z,54.71
2023-04-16T00:33:23.174Z,54.32
2023-04-16T00:35:49.667Z,54.32
2023-04-16T00:38:17.773Z,54.47
2023-04-16T00:40:45.308Z,54.06
2023-04-16T00:43:13.542Z,54.23
2023-04-16T00:45:41.074Z,54.36
2023-04-16T00:48:07.491Z,53.29
2023-04-16T00:50:34.398Z,53.05
2023-04-16T00:53:01.198Z,53.09
2023-04-16T00:55:27.722Z,52.88
2023-04-16T00:57:55.453Z,53.09
2023-04-16T01:00:21.916Z,53.47
2023-04-16T01:02:51.028Z,53.66
2023-04-16T01:05:18.275Z,53.46
2023-04-16T01:07:44.804Z,54.21
2023-04-16T01:10:11.603Z,54.69
2023-04-16T01:12:38.135Z,55.05
2023-04-16T01:15:04.798Z,55.00
2023-04-16T01:17:31.373Z,55.67
2023-04-16T01:19:57.989Z,56.01
2023-04-16T01:22:24.794Z,56.17
2023-04-16T01:24:51.446Z,56.05
2023-04-16T01:27:17.909Z,55.87
2023-04-16T01:29:44.714Z,56.22
2023-04-16T01:32:11.153Z,55.86
2023-04-16T01:34:37.646Z,55.67
2023-04-16T01:37:04.290Z,55.62
2023-04-16T01:39:30.811Z,55.35
2023-04-16T01:41:57.269Z,56.12
2023-04-16T01:44:23.776Z,55.62
2023-04-16T01:46:50.303Z,55.34
2023-04-16T01:49:17.049Z,55.24
2023-04-16T01:51:43.544Z,55.85
2023-04-16T01:54:10.522Z,55.98
2023-04-16T01:56:37.071Z,56.39
2023-04-16T01:59:03.617Z,56.40
2023-04-16T02:01:30.183Z,56.16
2023-04-16T02:03:56.724Z,56.20
2023-04-16T02:06:23.718Z,56.29
2023-04-16T02:08:50.124Z,56.16
2023-04-16T02:11:16.579Z,55.82
2023-04-16T02:13:43.132Z,55.69
2023-04-16T02:16:12.634Z,55.37
2023-04-16T02:18:39.166Z,54.61
2023-04-16T02:21:05.604Z,56.13
2023-04-16T02:23:32.092Z,55.62
2023-04-16T02:25:58.555Z,55.53
2023-04-16T02:28:26.182Z,56.39
2023-04-16T02:30:52.711Z,56.26
2023-04-16T02:33:19.597Z,55.61
2023-04-16T02:35:46.274Z,55.91
2023-04-16T02:38:12.940Z,55.69
2023-04-16T02:40:39.382Z,55.55
2023-04-16T02:43:05.847Z,54.97
2023-04-16T02:45:32.447Z,54.23
2023-04-16T02:47:58.955Z,54.58
2023-04-16T02:50:25.667Z,54.59
2023-04-16T02:53:01.020Z,54.47
2023-04-16T02:55:27.894Z,54.86
2023-04-16T02:57:54.359Z,54.96
2023-04-16T03:00:21.086Z,54.64
2023-04-16T03:02:47.629Z,55.34
2023-04-16T03:05:14.608Z,55.81
2023-04-16T03:07:41.025Z,55.93
2023-04-16T03:10:07.474Z,55.89
2023-04-16T03:12:33.883Z,55.85
2023-04-16T03:15:00.412Z,55.57
2023-04-16T03:17:27.052Z,55.54
2023-04-16T03:19:53.482Z,55.41
2023-04-16T03:22:20.013Z,55.45
2023-04-16T03:24:46.556Z,55.31
2023-04-16T03:27:13.211Z,55.06
2023-04-16T03:29:42.094Z,54.99
2023-04-16T03:32:08.522Z,54.50
2023-04-16T03:34:35.008Z,54.93
2023-04-16T03:37:01.583Z,55.42
2023-04-16T03:39:28.129Z,55.21
2023-04-16T03:41:54.589Z,55.15
2023-04-16T03:44:21.042Z,55.05
2023-04-16T03:46:47.583Z,55.23
2023-04-16T03:49:14.174Z,55.24
2023-04-16T03:51:40.568Z,54.96
2023-04-16T03:54:07.393Z,54.78
2023-04-16T03:56:33.966Z,55.07
2023-04-16T03:59:00.386Z,54.94
2023-04-16T04:01:26.846Z,54.50
2023-04-16T04:03:53.464Z,55.32
2023-04-16T04:06:20.453Z,55.16
2023-04-16T04:08:46.915Z,55.36
2023-04-16T04:11:13.602Z,55.08
2023-04-16T04:13:40.188Z,55.11
2023-04-16T04:16:06.655Z,54.93
2023-04-16T04:18:33.345Z,55.02
2023-04-16T04:20:59.745Z,55.08
2023-04-16T04:23:26.222Z,54.83
2023-04-16T04:25:53.190Z,55.31
2023-04-16T04:28:20.758Z,55.33
2023-04-16T04:30:48.039Z,55.10
2023-04-16T04:33:14.573Z,55.03
2023-04-16T04:35:41.125Z,55.15
2023-04-16T04:38:07.601Z,55.14
2023-04-16T04:40:34.079Z,55.22
2023-04-16T04:43:00.608Z,55.09
2023-04-16T04:45:28.458Z,55.18
2023-04-16T04:47:56.168Z,55.52
2023-04-16T04:50:22.681Z,55.72
2023-04-16T04:52:49.382Z,55.49
2023-04-16T04:55:16.050Z,55.25
2023-04-16T04:57:42.469Z,55.03
2023-04-16T05:00:08.999Z,55.00
2023-04-16T05:02:35.613Z,55.28
2023-04-16T05:05:02.310Z,55.43
2023-04-16T05:07:28.756Z,55.74
2023-04-16T05:09:55.206Z,55.59
2023-04-16T05:12:21.668Z,55.47
2023-04-16T05:14:48.157Z,55.82
2023-04-16T05:17:14.614Z,55.64
2023-04-16T05:19:41.305Z,55.58
2023-04-16T05:22:07.703Z,55.38
2023-04-16T05:24:34.271Z,55.12
2023-04-16T05:27:01.010Z,55.32
2023-04-16T05:29:27.478Z,54.83
2023-04-16T05:31:53.926Z,54.96
2023-04-16T05:34:20.407Z,54.99
2023-04-16T05:36:46.845Z,54.91
2023-04-16T05:39:13.664Z,55.22
2023-04-16T05:41:40.102Z,54.96
2023-04-16T05:44:06.571Z,55.16
2023-04-16T05:46:33.109Z,55.36
2023-04-16T05:48:59.700Z,55.07
2023-04-16T05:51:26.353Z,54.73
2023-04-16T05:53:52.802Z,55.13
2023-04-16T05:56:19.289Z,54.97
2023-04-16T05:58:45.655Z,55.10
2023-04-16T06:01:12.201Z,54.99
2023-04-16T06:03:38.887Z,55.03
2023-04-16T06:06:05.692Z,55.04
2023-04-16T06:08:32.202Z,55.16
2023-04-16T06:10:58.671Z,55.13
2023-04-16T06:13:25.192Z,54.78
2023-04-16T06:15:51.807Z,54.78
2023-04-16T06:18:18.406Z,54.55
2023-04-16T06:20:44.960Z,54.71
2023-04-16T06:23:11.594Z,54.66
2023-04-16T06:25:38.033Z,54.65
2023-04-16T06:28:04.439Z,54.43
2023-04-16T06:30:30.978Z,54.18
2023-04-16T06:32:57.902Z,54.21
2023-04-16T06:35:24.623Z,54.14
2023-04-16T06:37:51.348Z,54.35
2023-04-16T06:40:17.852Z,54.12
2023-04-16T06:42:45.530Z,54.56
2023-04-16T06:45:12.340Z,54.55
2023-04-16T06:47:38.981Z,54.28
2023-04-16T06:50:05.498Z,54.15
2023-04-16T06:52:31.941Z,54.09
2023-04-16T06:54:58.375Z,53.99
2023-04-16T06:57:27.894Z,54.21
2023-04-16T06:59:54.925Z,53.90
2023-04-16T07:02:21.482Z,53.04
2023-04-16T07:04:48.034Z,53.59
2023-04-16T07:07:14.472Z,53.26
2023-04-16T07:09:40.981Z,52.64
2023-04-16T07:12:08.164Z,51.83
2023-04-16T07:14:34.616Z,51.71
2023-04-16T07:17:01.064Z,51.99
2023-04-16T07:19:27.505Z,51.38
2023-04-16T07:21:53.984Z,51.73
2023-04-16T07:24:22.642Z,51.31
2023-04-16T07:26:49.288Z,51.48
2023-04-16T07:29:16.717Z,51.94
2023-04-16T07:31:43.264Z,50.96
2023-04-16T07:34:09.991Z,50.63
2023-04-16T07:36:36.516Z,51.12
2023-04-16T07:39:03.036Z,51.44
2023-04-16T07:41:29.612Z,50.14
2023-04-16T07:43:56.538Z,50.27
2023-04-16T07:46:24.743Z,50.37
2023-04-16T07:48:51.466Z,50.81
2023-04-16T07:51:18.159Z,50.31
2023-04-16T07:53:44.742Z,49.92
2023-04-16T07:56:11.650Z,50.71
2023-04-16T07:58:38.585Z,50.13
2023-04-16T08:01:06.065Z,50.46
2023-04-16T08:03:32.988Z,49.84
2023-04-16T08:05:59.489Z,49.80
2023-04-16T08:08:26.061Z,50.02
2023-04-16T08:10:52.596Z,49.08
2023-04-16T08:13:19.509Z,49.51
2023-04-16T08:15:46.186Z,48.13
2023-04-16T08:18:12.947Z,49.45
2023-04-16T08:20:39.587Z,49.36
2023-04-16T08:23:05.970Z,49.51
2023-04-16T08:25:32.506Z,49.46
2023-04-16T08:27:58.951Z,49.21
2023-04-16T08:30:25.451Z,48.42
2023-04-16T08:32:51.972Z,48.52
2023-04-16T08:35:18.721Z,48.17
2023-04-16T08:37:45.310Z,50.49
2023-04-16T08:40:11.947Z,51.40
2023-04-16T08:42:38.372Z,48.77
2023-04-16T08:45:04.873Z,48.06
2023-04-16T08:47:31.356Z,48.58
2023-04-16T08:49:58.508Z,48.42
2023-04-16T08:52:25.104Z,47.36
2023-04-16T08:54:56.617Z,47.88
2023-04-16T08:57:23.658Z,46.46
2023-04-16T08:59:51.098Z,46.68
2023-04-16T09:02:17.706Z,46.51
2023-04-16T09:04:44.518Z,47.01
2023-04-16T09:07:11.556Z,46.52
2023-04-16T09:09:38.042Z,46.16
2023-04-16T09:12:04.729Z,45.81
2023-04-16T09:14:32.210Z,44.67
2023-04-16T09:17:01.516Z,45.08
2023-04-16T09:19:29.349Z,45.42
2023-04-16T09:21:56.092Z,44.89
2023-04-16T09:24:22.617Z,45.08
2023-04-16T09:26:49.034Z,45.84
2023-04-16T09:29:15.634Z,44.80
2023-04-16T09:31:42.233Z,44.45
2023-04-16T09:34:08.912Z,45.20
2023-04-16T09:36:35.414Z,44.36
2023-04-16T09:39:09.286Z,44.83
2023-04-16T09:41:36.079Z,43.75
2023-04-16T09:44:04.227Z,44.24
2023-04-16T09:46:31.768Z,43.98
2023-04-16T09:48:59.398Z,44.12
2023-04-16T09:51:26.063Z,43.41
2023-04-16T09:53:52.555Z,43.29
2023-04-16T09:56:19.135Z,43.97
2023-04-16T09:58:45.628Z,44.01
2023-04-16T10:01:12.187Z,47.04
2023-04-16T10:03:38.992Z,45.19
2023-04-16T10:06:05.737Z,48.25
2023-04-16T10:08:33.599Z,45.83
2023-04-16T10:11:00.184Z,45.48
2023-04-16T10:13:26.677Z,43.70
2023-04-16T10:15:56.924Z,45.81
2023-04-16T10:18:26.768Z,44.01
2023-04-16T10:20:53.675Z,42.88
2023-04-16T10:23:20.177Z,42.19
2023-04-16T10:25:46.578Z,42.38
2023-04-16T10:28:13.093Z,42.87
2023-04-16T10:30:39.649Z,41.72
2023-04-16T10:33:07.495Z,42.51
2023-04-16T10:35:34.588Z,42.34
2023-04-16T10:38:01.168Z,42.09
2023-04-16T10:40:27.667Z,42.61
2023-04-16T10:42:54.585Z,41.92
2023-04-16T10:45:21.241Z,41.40
2023-04-16T10:47:47.787Z,41.52
2023-04-16T10:50:15.138Z,42.53
2023-04-16T10:52:41.650Z,41.79
2023-04-16T10:55:08.268Z,41.29
2023-04-16T10:57:34.689Z,41.46
2023-04-16T11:00:01.150Z,41.91
2023-04-16T11:02:28.586Z,42.16
2023-04-16T11:04:55.255Z,41.24
2023-04-16T11:07:23.014Z,40.39
2023-04-16T11:09:49.449Z,39.82
2023-04-16T11:12:16.123Z,40.65
2023-04-16T11:14:42.960Z,42.10
2023-04-16T11:17:09.762Z,42.69
2023-04-16T11:19:36.244Z,41.84
2023-04-16T11:22:02.893Z,42.00
2023-04-16T11:24:29.620Z,41.70
2023-04-16T11:26:56.098Z,40.88
2023-04-16T11:29:22.547Z,42.12
2023-04-16T11:31:51.079Z,42.43
2023-04-16T11:34:17.886Z,41.74
2023-04-16T11:36:44.753Z,42.66
2023-04-16T11:39:11.516Z,44.33
2023-04-16T11:41:38.175Z,42.25
2023-04-16T11:44:04.638Z,41.09
2023-04-16T11:46:31.100Z,41.60
2023-04-16T11:48:57.667Z,41.72
2023-04-16T11:51:24.231Z,40.83
2023-04-16T11:53:50.952Z,40.58
2023-04-16T11:56:17.620Z,39.29
2023-04-16T11:58:44.098Z,39.35
2023-04-16T12:01:10.775Z,39.54
2023-04-16T12:03:38.216Z,40.06
2023-04-16T12:06:04.726Z,39.92
2023-04-16T12:08:31.432Z,39.79
2023-04-16T12:10:58.171Z,39.58
2023-04-16T12:13:24.652Z,39.44
2023-04-16T12:15:51.465Z,38.83
2023-04-16T12:18:18.436Z,39.08
2023-04-16T12:20:44.933Z,38.86
2023-04-16T12:23:11.817Z,39.16
2023-04-16T12:25:38.623Z,39.21
2023-04-16T12:28:05.045Z,39.35
2023-04-16T12:30:31.797Z,37.23
2023-04-16T12:32:59.139Z,41.00
2023-04-16T12:41:00.171Z,38.94
2023-04-16T12:43:27.120Z,40.68
2023-04-16T12:45:55.845Z,39.60
2023-04-16T12:48:22.326Z,39.43
2023-04-16T12:50:48.802Z,39.90
2023-04-16T12:53:15.447Z,39.92
2023-04-16T12:55:41.970Z,39.98
2023-04-16T12:58:09.815Z,39.66
2023-04-16T13:00:37.576Z,39.10
2023-04-16T13:03:04.699Z,38.56
2023-04-16T13:05:31.863Z,38.98
2023-04-16T13:07:58.476Z,38.71
2023-04-16T13:13:15.808Z,38.41
2023-04-16T13:15:42.449Z,37.02
2023-04-16T13:18:09.596Z,37.69
2023-04-16T13:20:37.292Z,38.42
2023-04-16T13:23:03.921Z,37.75
2023-04-16T13:25:30.409Z,38.51
2023-04-16T13:27:57.147Z,39.20
2023-04-16T14:26:09.527Z,40.66
2023-04-16T14:28:36.624Z,40.11
2023-04-16T14:31:03.177Z,40.01
2023-04-16T14:33:30.053Z,40.55
2023-04-16T14:35:57.152Z,41.04
2023-04-16T14:38:23.703Z,41.55
2023-04-16T14:40:50.440Z,41.87
2023-04-16T14:43:16.986Z,41.83
2023-04-16T14:45:43.703Z,42.30
2023-04-16T14:48:10.184Z,42.05
2023-04-16T14:50:37.124Z,41.69
2023-04-16T14:53:03.680Z,42.37
2023-04-16T14:55:30.116Z,42.76
2023-04-16T14:57:57.530Z,42.28
2023-04-16T15:00:24.065Z,42.60
2023-04-16T15:02:50.954Z,42.13
2023-04-16T15:05:17.892Z,42.61
2023-04-16T15:07:44.573Z,43.02
2023-04-16T15:10:11.118Z,42.53
2023-04-16T15:12:37.599Z,42.36
2023-04-16T15:15:04.059Z,41.69
2023-04-16T15:17:30.731Z,42.46
2023-04-16T15:19:58.390Z,42.72
2023-04-16T15:22:24.897Z,43.26
2023-04-16T15:24:51.582Z,41.65
2023-04-16T15:27:19.554Z,42.63
2023-04-16T15:29:46.507Z,44.21
2023-04-16T15:32:13.256Z,41.36
2023-04-16T15:34:40.191Z,42.51
2023-04-16T15:37:06.765Z,42.78
2023-04-16T15:39:34.866Z,42.59
2023-04-16T15:42:04.020Z,42.00
2023-04-16T15:44:32.229Z,42.60
2023-04-16T15:46:59.184Z,41.70
2023-04-16T15:49:25.822Z,41.94
2023-04-16T15:51:52.718Z,41.82
2023-04-16T15:54:19.409Z,41.57
2023-04-16T15:56:46.219Z,41.62
2023-04-16T15:59:15.748Z,41.98
2023-04-16T16:01:42.347Z,42.58
2023-04-16T16:04:10.547Z,42.80
2023-04-16T16:06:37.395Z,42.04
2023-04-16T16:09:04.293Z,43.13
2023-04-16T16:11:32.209Z,43.63
2023-04-16T16:13:59.507Z,43.25
2023-04-16T16:16:26.243Z,44.07
2023-04-16T16:18:53.206Z,44.64
2023-04-16T16:21:21.245Z,44.33
2023-04-16T16:23:48.170Z,44.70
2023-04-16T16:26:15.244Z,45.16
2023-04-16T16:28:43.238Z,45.87
2023-04-16T16:31:10.300Z,45.82
2023-04-16T16:33:39.082Z,46.19
2023-04-16T16:36:09.393Z,46.68
2023-04-16T16:38:37.013Z,46.69
2023-04-16T16:41:04.355Z,45.95
2023-04-16T16:43:31.855Z,45.79
2023-04-16T16:45:59.005Z,45.91
2023-04-16T16:48:26.027Z,45.98
2023-04-16T16:50:53.727Z,45.64
2023-04-16T16:53:20.662Z,45.79
2023-04-16T16:55:47.694Z,46.11
2023-04-16T16:58:17.900Z,46.77
2023-04-16T17:00:46.017Z,47.40
2023-04-16T17:03:13.332Z,48.50
2023-04-16T17:05:40.420Z,48.26
2023-04-16T17:08:08.398Z,48.19
2023-04-16T17:10:38.507Z,48.38
2023-04-16T17:13:05.441Z,48.87
2023-04-16T17:15:32.834Z,48.52
2023-04-16T17:17:59.947Z,48.82
2023-04-16T17:20:26.880Z,48.87
2023-04-16T17:22:54.105Z,48.90
2023-04-16T17:25:20.721Z,49.22
2023-04-16T17:27:47.767Z,49.56
2023-04-16T17:30:14.726Z,49.64
2023-04-16T17:32:41.960Z,49.60
2023-04-16T17:35:10.571Z,50.32
2023-04-16T17:40:18.524Z,50.17
2023-04-16T17:42:46.224Z,50.27
2023-04-16T17:45:13.581Z,50.36
2023-04-16T17:47:41.282Z,50.96
2023-04-16T17:50:08.414Z,51.20
2023-04-16T17:52:35.248Z,51.97
2023-04-16T17:55:02.119Z,51.37
2023-04-16T17:57:29.289Z,51.56
2023-04-16T17:59:58.633Z,51.31
2023-04-16T18:02:25.770Z,50.94
2023-04-16T18:04:53.236Z,51.00
2023-04-16T18:07:22.754Z,52.08
2023-04-16T18:09:49.321Z,52.50
2023-04-16T18:12:16.361Z,52.17
2023-04-16T18:14:43.284Z,51.97
2023-04-16T18:17:10.526Z,51.50
2023-04-16T18:19:37.056Z,51.33
2023-04-16T18:22:04.026Z,52.03
2023-04-16T18:24:31.210Z,52.21
2023-04-16T18:26:57.620Z,52.58
2023-04-16T18:29:25.478Z,51.56
2023-04-16T18:31:55.103Z,51.84
2023-04-16T18:34:22.580Z,52.65
2023-04-16T18:36:49.474Z,52.90
2023-04-16T18:39:16.598Z,53.07
2023-04-16T18:41:43.863Z,53.23
2023-04-16T18:44:10.480Z,53.15
2023-04-16T18:46:37.444Z,54.39
2023-04-16T18:49:05.724Z,53.74
2023-04-16T18:51:37.095Z,54.35
2023-04-16T18:54:04.147Z,53.93
2023-04-16T18:56:31.579Z,54.24
2023-04-16T18:58:58.128Z,54.25
2023-04-16T19:01:25.271Z,54.08
2023-04-16T19:03:52.390Z,53.52
2023-04-16T19:06:19.883Z,53.79
2023-04-16T19:08:46.449Z,54.23
2023-04-16T19:11:13.397Z,54.60
2023-04-16T19:13:40.881Z,53.67
2023-04-16T19:16:07.897Z,53.89
2023-04-16T19:18:35.465Z,54.08
2023-04-16T19:21:02.517Z,54.06
2023-04-16T19:23:29.147Z,54.19
2023-04-16T19:25:56.226Z,54.00
2023-04-16T19:28:23.219Z,53.48
2023-04-16T19:30:59.190Z,54.14
2023-04-16T19:33:26.289Z,54.00
2023-04-16T19:35:53.337Z,53.65
2023-04-16T19:38:20.304Z,53.95
2023-04-16T19:40:48.295Z,54.24
2023-04-16T19:43:15.274Z,54.55
2023-04-16T19:45:42.842Z,54.38
2023-04-16T19:48:10.711Z,54.57
2023-04-16T19:50:37.888Z,54.53
2023-04-16T19:53:04.403Z,53.76
2023-04-16T19:55:32.606Z,53.76
2023-04-16T19:57:59.590Z,54.00
2023-04-16T20:00:26.600Z,53.88
2023-04-16T20:02:53.784Z,54.05
2023-04-16T20:05:20.713Z,53.74
2023-04-16T20:07:47.907Z,54.19
2023-04-16T20:10:16.692Z,54.12
2023-04-16T20:12:43.825Z,53.98
2023-04-16T20:15:10.509Z,54.29
2023-04-16T20:17:37.298Z,54.01
2023-04-16T20:20:04.364Z,53.93
2023-04-16T20:22:30.828Z,53.75
2023-04-16T20:24:57.708Z,53.62
2023-04-16T20:27:24.841Z,53.59
2023-04-16T20:29:51.496Z,53.58
2023-04-16T20:32:18.017Z,54.04
2023-04-16T20:34:44.974Z,53.72
2023-04-16T20:37:11.483Z,53.61
2023-04-16T20:39:38.153Z,53.82
2023-04-16T20:42:04.875Z,53.60
2023-04-16T20:44:32.838Z,53.35
2023-04-16T20:46:59.564Z,54.15
2023-04-16T20:49:26.007Z,53.54
2023-04-16T20:51:53.028Z,53.74
2023-04-16T20:54:19.568Z,54.35
2023-04-16T20:56:46.000Z,54.95
2023-04-16T20:59:12.686Z,54.50
2023-04-16T21:01:39.653Z,53.96
2023-04-16T21:04:06.392Z,53.82
2023-04-16T21:06:33.129Z,54.29
2023-04-16T21:08:59.568Z,54.30
2023-04-16T21:11:26.061Z,53.68
2023-04-16T21:13:52.508Z,54.89
2023-04-16T21:16:19.194Z,53.86
2023-04-16T21:18:45.693Z,53.21
2023-04-16T21:21:12.061Z,54.06
2023-04-16T21:23:38.478Z,53.78
2023-04-16T21:26:04.922Z,53.46
2023-04-16T21:28:31.720Z,54.33
2023-04-16T21:30:58.217Z,54.00
2023-04-16T21:33:24.775Z,54.95
2023-04-16T21:35:51.180Z,54.92
2023-04-16T21:38:17.672Z,54.46
2023-04-16T21:40:44.074Z,54.17
2023-04-16T21:43:10.517Z,54.37
2023-04-16T21:45:36.991Z,54.17
2023-04-16T21:48:03.449Z,54.57
2023-04-16T21:50:29.929Z,54.25
2023-04-16T21:52:56.494Z,54.01
2023-04-16T21:55:22.920Z,53.92
2023-04-16T21:57:49.406Z,53.63
2023-04-16T22:00:15.831Z,53.51
2023-04-16T22:02:43.031Z,53.97
2023-04-16T22:05:09.669Z,54.59
2023-04-16T22:07:36.616Z,54.76
2023-04-16T22:10:03.121Z,54.59
2023-04-16T22:12:29.578Z,54.51
2023-04-16T22:15:02.352Z,54.92
2023-04-16T22:17:29.811Z,53.98
2023-04-16T22:19:56.316Z,54.38
2023-04-16T22:22:22.750Z,54.63
2023-04-16T22:24:49.156Z,54.27
2023-04-16T22:27:16.182Z,54.16
2023-04-16T22:29:42.625Z,54.42
2023-04-16T22:32:09.154Z,54.63
2023-04-16T22:34:35.668Z,55.11
2023-04-16T22:37:02.498Z,54.62
2023-04-16T22:39:28.980Z,54.90
2023-04-16T22:41:55.616Z,54.56
2023-04-16T22:44:22.150Z,55.10
2023-04-16T22:46:48.586Z,54.72
2023-04-16T22:49:15.178Z,54.42
2023-04-16T22:51:41.592Z,54.06
2023-04-16T22:54:08.008Z,54.15
2023-04-16T22:56:34.535Z,54.30
2023-04-16T22:59:00.955Z,55.18
2023-04-16T23:01:27.442Z,54.33
2023-04-16T23:03:53.963Z,54.36
2023-04-16T23:06:20.421Z,55.48
2023-04-16T23:08:46.850Z,55.00
2023-04-16T23:11:13.596Z,55.38
2023-04-16T23:13:39.999Z,55.15
2023-04-16T23:16:06.590Z,55.09
2023-04-16T23:18:33.167Z,54.57
2023-04-16T23:20:59.639Z,54.61
2023-04-16T23:23:26.276Z,55.16
2023-04-16T23:25:52.741Z,55.50
2023-04-16T23:28:19.556Z,55.08
2023-04-16T23:30:45.949Z,54.75
2023-04-16T23:33:12.579Z,54.79
2023-04-16T23:35:39.021Z,55.13
2023-04-16T23:38:05.473Z,54.81
2023-04-16T23:40:31.984Z,54.87
2023-04-16T23:42:58.428Z,54.53
2023-04-16T23:45:24.895Z,54.13
2023-04-16T23:47:51.449Z,54.79
2023-04-16T23:50:17.883Z,54.83
2023-04-16T23:52:44.350Z,54.40
2023-04-16T23:55:10.780Z,54.44
2023-04-16T23:57:37.139Z,55.15
